sensor_id;sensor_type;location;lat;lon;timestamp;pressure;altitude;pressure_sealevel;temperature;humidity
56681;BME280;42558;52.388;13.390;2023-12-20T00:01:40;100555.20;;;4.84;100.00
56681;BME280;42558;52.388;13.390;2023-12-20T00:04:10;100555.03;;;4.84;100.00
56681;BME280;42558;52.388;13.390;2023-12-20T00:06:40;100558.68;;;4.84;100.00
56681;BME280;42558;52.388;13.390;2023-12-20T00:09:09;100551.71;;;4.84;100.00
56681;BME280;42558;52.388;13.390;2023-12-20T00:11:37;100552.14;;;4.81;100.00
56681;BME280;42558;52.388;13.390;2023-12-20T00:14:05;100548.52;;;4.82;100.00
56681;BME280;42558;52.388;13.390;2023-12-20T00:16:34;100546.06;;;4.82;100.00
56681;BME280;42558;52.388;13.390;2023-12-20T00:19:02;100546.44;;;4.82;100.00
56681;BME280;42558;52.388;13.390;2023-12-20T00:21:31;100541.73;;;4.82;100.00
56681;BME280;42558;52.388;13.390;2023-12-20T00:23:59;100539.33;;;4.83;100.00
56681;BME280;42558;52.388;13.390;2023-12-20T00:26:27;100539.50;;;4.83;100.00
56681;BME280;42558;52.388;13.390;2023-12-20T00:28:56;100537.16;;;4.81;100.00
56681;BME280;42558;52.388;13.390;2023-12-20T00:31:24;100536.23;;;4.80;100.00
56681;BME280;42558;52.388;13.390;2023-12-20T00:33:53;100532.77;;;4.80;100.00
56681;BME280;42558;52.388;13.390;2023-12-20T00:36:21;100528.08;;;4.80;100.00
56681;BME280;42558;52.388;13.390;2023-12-20T00:38:49;100528.73;;;4.80;100.00
56681;BME280;42558;52.388;13.390;2023-12-20T00:41:18;100527.99;;;4.78;100.00
56681;BME280;42558;52.388;13.390;2023-12-20T00:43:46;100530.11;;;4.79;100.00
56681;BME280;42558;52.388;13.390;2023-12-20T00:46:15;100530.79;;;4.78;100.00
56681;BME280;42558;52.388;13.390;2023-12-20T00:48:43;100527.84;;;4.79;100.00
56681;BME280;42558;52.388;13.390;2023-12-20T00:51:15;100521.75;;;4.79;100.00
56681;BME280;42558;52.388;13.390;2023-12-20T00:53:43;100522.45;;;4.79;100.00
56681;BME280;42558;52.388;13.390;2023-12-20T00:56:12;100519.80;;;4.77;100.00
56681;BME280;42558;52.388;13.390;2023-12-20T00:58:40;100522.42;;;4.78;100.00
56681;BME280;42558;52.388;13.390;2023-12-20T01:01:08;100524.17;;;4.78;100.00
56681;BME280;42558;52.388;13.390;2023-12-20T01:03:37;100525.92;;;4.78;100.00
56681;BME280;42558;52.388;13.390;2023-12-20T01:06:06;100524.91;;;4.80;100.00
56681;BME280;42558;52.388;13.390;2023-12-20T01:08:34;100527.83;;;4.78;100.00
56681;BME280;42558;52.388;13.390;2023-12-20T01:11:04;100527.47;;;4.78;100.00
56681;BME280;42558;52.388;13.390;2023-12-20T01:13:35;100530.02;;;4.76;100.00
56681;BME280;42558;52.388;13.390;2023-12-20T01:16:05;100522.02;;;4.76;100.00
56681;BME280;42558;52.388;13.390;2023-12-20T01:18:35;100529.42;;;4.79;100.00
56681;BME280;42558;52.388;13.390;2023-12-20T01:21:05;100528.42;;;4.81;100.00
56681;BME280;42558;52.388;13.390;2023-12-20T01:23:32;100518.48;;;4.80;100.00
56681;BME280;42558;52.388;13.390;2023-12-20T01:26:01;100524.63;;;4.81;100.00
56681;BME280;42558;52.388;13.390;2023-12-20T01:28:29;100526.09;;;4.83;100.00
56681;BME280;42558;52.388;13.390;2023-12-20T01:30:58;100527.07;;;4.81;100.00
56681;BME280;42558;52.388;13.390;2023-12-20T01:33:26;100528.65;;;4.82;100.00
56681;BME280;42558;52.388;13.390;2023-12-20T01:35:54;100523.95;;;4.82;100.00
56681;BME280;42558;52.388;13.390;2023-12-20T01:38:23;100522.52;;;4.81;100.00
56681;BME280;42558;52.388;13.390;2023-12-20T01:40:51;100524.63;;;4.82;100.00
56681;BME280;42558;52.388;13.390;2023-12-20T01:43:20;100526.91;;;4.82;100.00
56681;BME280;42558;52.388;13.390;2023-12-20T01:45:48;100524.42;;;4.81;100.00
56681;BME280;42558;52.388;13.390;2023-12-20T01:48:17;100518.16;;;4.81;100.00
56681;BME280;42558;52.388;13.390;2023-12-20T01:50:45;100513.17;;;4.83;100.00
56681;BME280;42558;52.388;13.390;2023-12-20T01:53:14;100513.36;;;4.83;100.00
56681;BME280;42558;52.388;13.390;2023-12-20T01:55:45;100521.91;;;4.83;100.00
56681;BME280;42558;52.388;13.390;2023-12-20T01:58:14;100518.98;;;4.85;100.00
56681;BME280;42558;52.388;13.390;2023-12-20T02:00:42;100509.55;;;4.83;100.00
56681;BME280;42558;52.388;13.390;2023-12-20T02:03:11;100506.73;;;4.82;100.00
56681;BME280;42558;52.388;13.390;2023-12-20T02:05:39;100501.14;;;4.82;100.00
56681;BME280;42558;52.388;13.390;2023-12-20T02:08:07;100497.14;;;4.82;100.00
56681;BME280;42558;52.388;13.390;2023-12-20T02:10:35;100497.70;;;4.83;100.00
56681;BME280;42558;52.388;13.390;2023-12-20T02:13:04;100491.73;;;4.82;100.00
56681;BME280;42558;52.388;13.390;2023-12-20T02:15:32;100486.85;;;4.81;100.00
56681;BME280;42558;52.388;13.390;2023-12-20T02:18:01;100489.19;;;4.84;100.00
56681;BME280;42558;52.388;13.390;2023-12-20T02:20:29;100493.38;;;4.84;100.00
56681;BME280;42558;52.388;13.390;2023-12-20T02:22:57;100497.91;;;4.84;100.00
56681;BME280;42558;52.388;13.390;2023-12-20T02:25:26;100496.88;;;4.85;100.00
56681;BME280;42558;52.388;13.390;2023-12-20T02:27:55;100499.75;;;4.88;100.00
56681;BME280;42558;52.388;13.390;2023-12-20T02:30:23;100497.14;;;4.87;100.00
56681;BME280;42558;52.388;13.390;2023-12-20T02:32:52;100500.70;;;4.89;100.00
56681;BME280;42558;52.388;13.390;2023-12-20T02:35:23;100505.50;;;4.93;100.00
56681;BME280;42558;52.388;13.390;2023-12-20T02:37:53;100501.44;;;4.96;100.00
56681;BME280;42558;52.388;13.390;2023-12-20T02:40:21;100501.13;;;4.98;100.00
56681;BME280;42558;52.388;13.390;2023-12-20T02:42:50;100495.52;;;5.02;100.00
56681;BME280;42558;52.388;13.390;2023-12-20T02:45:18;100495.35;;;5.02;100.00
56681;BME280;42558;52.388;13.390;2023-12-20T02:47:46;100492.27;;;5.04;100.00
56681;BME280;42558;52.388;13.390;2023-12-20T02:50:15;100489.92;;;5.07;100.00
56681;BME280;42558;52.388;13.390;2023-12-20T02:52:46;100490.17;;;5.09;100.00
56681;BME280;42558;52.388;13.390;2023-12-20T02:55:15;100495.66;;;5.13;100.00
56681;BME280;42558;52.388;13.390;2023-12-20T02:57:43;100495.86;;;5.14;100.00
56681;BME280;42558;52.388;13.390;2023-12-20T03:00:12;100498.12;;;5.13;100.00
56681;BME280;42558;52.388;13.390;2023-12-20T03:02:40;100492.41;;;5.14;100.00
56681;BME280;42558;52.388;13.390;2023-12-20T03:05:08;100494.07;;;5.17;100.00
56681;BME280;42558;52.388;13.390;2023-12-20T03:07:37;100490.46;;;5.19;100.00
56681;BME280;42558;52.388;13.390;2023-12-20T03:10:06;100493.58;;;5.18;100.00
56681;BME280;42558;52.388;13.390;2023-12-20T03:12:49;100503.67;;;5.17;100.00
56681;BME280;42558;52.388;13.390;2023-12-20T03:15:19;100512.59;;;5.18;100.00
56681;BME280;42558;52.388;13.390;2023-12-20T03:17:49;100510.59;;;5.22;100.00
56681;BME280;42558;52.388;13.390;2023-12-20T03:20:19;100508.73;;;5.24;100.00
56681;BME280;42558;52.388;13.390;2023-12-20T03:22:49;100518.91;;;5.26;100.00
56681;BME280;42558;52.388;13.390;2023-12-20T03:25:19;100522.58;;;5.26;100.00
56681;BME280;42558;52.388;13.390;2023-12-20T03:27:49;100518.88;;;5.25;100.00
56681;BME280;42558;52.388;13.390;2023-12-20T03:30:19;100517.52;;;5.26;100.00
56681;BME280;42558;52.388;13.390;2023-12-20T03:32:49;100515.56;;;5.25;100.00
56681;BME280;42558;52.388;13.390;2023-12-20T03:35:20;100520.65;;;5.26;100.00
56681;BME280;42558;52.388;13.390;2023-12-20T03:37:49;100519.23;;;5.25;100.00
56681;BME280;42558;52.388;13.390;2023-12-20T03:40:20;100519.77;;;5.26;100.00
56681;BME280;42558;52.388;13.390;2023-12-20T03:42:50;100519.77;;;5.26;100.00
56681;BME280;42558;52.388;13.390;2023-12-20T03:45:20;100510.36;;;5.26;100.00
56681;BME280;42558;52.388;13.390;2023-12-20T03:47:50;100509.52;;;5.27;100.00
56681;BME280;42558;52.388;13.390;2023-12-20T03:50:26;100515.21;;;5.25;100.00
56681;BME280;42558;52.388;13.390;2023-12-20T03:52:56;100510.48;;;5.24;100.00
56681;BME280;42558;52.388;13.390;2023-12-20T03:55:26;100510.73;;;5.20;100.00
56681;BME280;42558;52.388;13.390;2023-12-20T03:57:56;100512.53;;;5.22;100.00
56681;BME280;42558;52.388;13.390;2023-12-20T04:00:26;100506.45;;;5.23;100.00
56681;BME280;42558;52.388;13.390;2023-12-20T04:02:56;100495.13;;;5.23;100.00
56681;BME280;42558;52.388;13.390;2023-12-20T04:05:25;100491.31;;;5.24;100.00
56681;BME280;42558;52.388;13.390;2023-12-20T04:07:53;100490.51;;;5.20;100.00
56681;BME280;42558;52.388;13.390;2023-12-20T04:10:22;100490.13;;;5.19;100.00
56681;BME280;42558;52.388;13.390;2023-12-20T04:12:50;100488.45;;;5.21;100.00
56681;BME280;42558;52.388;13.390;2023-12-20T04:15:18;100488.95;;;5.21;100.00
56681;BME280;42558;52.388;13.390;2023-12-20T04:17:47;100483.94;;;5.22;100.00
56681;BME280;42558;52.388;13.390;2023-12-20T04:20:15;100477.19;;;5.17;100.00
56681;BME280;42558;52.388;13.390;2023-12-20T04:22:44;100474.98;;;5.14;100.00
56681;BME280;42558;52.388;13.390;2023-12-20T04:25:12;100477.47;;;5.15;100.00
56681;BME280;42558;52.388;13.390;2023-12-20T04:27:41;100475.13;;;5.13;100.00
56681;BME280;42558;52.388;13.390;2023-12-20T04:30:10;100467.23;;;5.11;100.00
56681;BME280;42558;52.388;13.390;2023-12-20T04:32:37;100466.51;;;5.10;100.00
56681;BME280;42558;52.388;13.390;2023-12-20T04:35:06;100471.18;;;5.09;100.00
56681;BME280;42558;52.388;13.390;2023-12-20T04:37:37;100468.88;;;5.08;100.00
56681;BME280;42558;52.388;13.390;2023-12-20T04:40:07;100473.35;;;5.06;100.00
56681;BME280;42558;52.388;13.390;2023-12-20T04:42:39;100464.01;;;5.03;100.00
56681;BME280;42558;52.388;13.390;2023-12-20T04:45:09;100460.63;;;5.01;100.00
56681;BME280;42558;52.388;13.390;2023-12-20T04:47:39;100462.52;;;4.94;100.00
56681;BME280;42558;52.388;13.390;2023-12-20T04:50:11;100466.73;;;4.89;100.00
56681;BME280;42558;52.388;13.390;2023-12-20T04:52:43;100469.91;;;4.86;100.00
56681;BME280;42558;52.388;13.390;2023-12-20T04:55:13;100466.73;;;4.84;100.00
56681;BME280;42558;52.388;13.390;2023-12-20T04:57:43;100462.17;;;4.78;100.00
56681;BME280;42558;52.388;13.390;2023-12-20T05:00:14;100462.67;;;4.72;100.00
56681;BME280;42558;52.388;13.390;2023-12-20T05:02:45;100461.66;;;4.68;100.00
56681;BME280;42558;52.388;13.390;2023-12-20T05:05:15;100465.13;;;4.56;100.00
56681;BME280;42558;52.388;13.390;2023-12-20T05:07:47;100459.34;;;4.49;100.00
56681;BME280;42558;52.388;13.390;2023-12-20T05:10:18;100460.73;;;4.44;100.00
56681;BME280;42558;52.388;13.390;2023-12-20T05:12:48;100469.02;;;4.42;100.00
56681;BME280;42558;52.388;13.390;2023-12-20T05:15:18;100469.80;;;4.40;100.00
56681;BME280;42558;52.388;13.390;2023-12-20T05:17:48;100470.24;;;4.37;100.00
56681;BME280;42558;52.388;13.390;2023-12-20T05:20:18;100476.21;;;4.39;100.00
56681;BME280;42558;52.388;13.390;2023-12-20T05:22:48;100475.02;;;4.40;100.00
56681;BME280;42558;52.388;13.390;2023-12-20T05:25:18;100472.95;;;4.41;100.00
56681;BME280;42558;52.388;13.390;2023-12-20T05:27:48;100468.95;;;4.40;100.00
56681;BME280;42558;52.388;13.390;2023-12-20T05:30:19;100478.30;;;4.40;100.00
56681;BME280;42558;52.388;13.390;2023-12-20T05:32:49;100476.38;;;4.39;100.00
56681;BME280;42558;52.388;13.390;2023-12-20T05:35:19;100468.34;;;4.38;100.00
56681;BME280;42558;52.388;13.390;2023-12-20T05:37:50;100464.07;;;4.30;100.00
56681;BME280;42558;52.388;13.390;2023-12-20T05:40:19;100461.67;;;4.26;100.00
56681;BME280;42558;52.388;13.390;2023-12-20T05:42:50;100464.42;;;4.20;100.00
56681;BME280;42558;52.388;13.390;2023-12-20T05:45:20;100461.40;;;4.13;100.00
56681;BME280;42558;52.388;13.390;2023-12-20T05:47:50;100465.02;;;4.06;100.00
56681;BME280;42558;52.388;13.390;2023-12-20T05:50:20;100462.95;;;3.97;100.00
56681;BME280;42558;52.388;13.390;2023-12-20T05:52:48;100465.70;;;3.92;100.00
56681;BME280;42558;52.388;13.390;2023-12-20T05:55:17;100460.81;;;3.86;100.00
56681;BME280;42558;52.388;13.390;2023-12-20T05:57:45;100461.36;;;3.82;100.00
56681;BME280;42558;52.388;13.390;2023-12-20T06:00:14;100459.23;;;3.81;100.00
56681;BME280;42558;52.388;13.390;2023-12-20T06:02:43;100453.44;;;3.74;100.00
56681;BME280;42558;52.388;13.390;2023-12-20T06:05:11;100447.84;;;3.69;100.00
56681;BME280;42558;52.388;13.390;2023-12-20T06:07:39;100447.16;;;3.65;100.00
56681;BME280;42558;52.388;13.390;2023-12-20T06:10:08;100445.86;;;3.62;100.00
56681;BME280;42558;52.388;13.390;2023-12-20T06:12:39;100442.02;;;3.57;100.00
56681;BME280;42558;52.388;13.390;2023-12-20T06:15:08;100430.11;;;3.54;100.00
56681;BME280;42558;52.388;13.390;2023-12-20T06:17:36;100429.15;;;3.52;100.00
56681;BME280;42558;52.388;13.390;2023-12-20T06:20:07;100427.39;;;3.46;100.00
56681;BME280;42558;52.388;13.390;2023-12-20T06:22:41;100426.06;;;3.43;100.00
56681;BME280;42558;52.388;13.390;2023-12-20T06:25:11;100425.45;;;3.41;100.00
56681;BME280;42558;52.388;13.390;2023-12-20T06:27:40;100427.83;;;3.44;100.00
56681;BME280;42558;52.388;13.390;2023-12-20T06:30:08;100429.91;;;3.44;100.00
56681;BME280;42558;52.388;13.390;2023-12-20T06:32:36;100429.12;;;3.46;100.00
56681;BME280;42558;52.388;13.390;2023-12-20T06:35:06;100431.82;;;3.48;100.00
56681;BME280;42558;52.388;13.390;2023-12-20T06:37:33;100434.14;;;3.46;100.00
56681;BME280;42558;52.388;13.390;2023-12-20T06:40:02;100437.59;;;3.49;100.00
56681;BME280;42558;52.388;13.390;2023-12-20T06:42:30;100437.03;;;3.58;100.00
56681;BME280;42558;52.388;13.390;2023-12-20T06:45:06;100436.08;;;3.61;100.00
56681;BME280;42558;52.388;13.390;2023-12-20T06:47:36;100437.95;;;3.60;100.00
56681;BME280;42558;52.388;13.390;2023-12-20T06:50:05;100439.88;;;3.60;100.00
56681;BME280;42558;52.388;13.390;2023-12-20T06:52:33;100435.70;;;3.60;100.00
56681;BME280;42558;52.388;13.390;2023-12-20T06:55:01;100436.11;;;3.62;100.00
56681;BME280;42558;52.388;13.390;2023-12-20T06:57:30;100430.64;;;3.64;100.00
56681;BME280;42558;52.388;13.390;2023-12-20T06:59:58;100428.09;;;3.66;100.00
56681;BME280;42558;52.388;13.390;2023-12-20T07:02:27;100428.02;;;3.64;100.00
56681;BME280;42558;52.388;13.390;2023-12-20T07:04:58;100432.47;;;3.62;100.00
56681;BME280;42558;52.388;13.390;2023-12-20T07:07:26;100433.98;;;3.65;100.00
56681;BME280;42558;52.388;13.390;2023-12-20T07:09:55;100429.38;;;3.68;100.00
56681;BME280;42558;52.388;13.390;2023-12-20T07:12:23;100428.80;;;3.71;100.00
56681;BME280;42558;52.388;13.390;2023-12-20T07:14:52;100431.04;;;3.70;100.00
56681;BME280;42558;52.388;13.390;2023-12-20T07:17:20;100428.21;;;3.69;100.00
56681;BME280;42558;52.388;13.390;2023-12-20T07:19:48;100429.30;;;3.70;100.00
56681;BME280;42558;52.388;13.390;2023-12-20T07:22:17;100426.36;;;3.71;100.00
56681;BME280;42558;52.388;13.390;2023-12-20T07:24:45;100424.45;;;3.71;100.00
56681;BME280;42558;52.388;13.390;2023-12-20T07:27:14;100429.95;;;3.74;100.00
56681;BME280;42558;52.388;13.390;2023-12-20T07:29:42;100432.98;;;3.76;100.00
56681;BME280;42558;52.388;13.390;2023-12-20T07:32:10;100429.73;;;3.77;100.00
56681;BME280;42558;52.388;13.390;2023-12-20T07:34:39;100427.75;;;3.80;100.00
56681;BME280;42558;52.388;13.390;2023-12-20T07:37:07;100428.78;;;3.81;100.00
56681;BME280;42558;52.388;13.390;2023-12-20T07:39:40;100427.54;;;3.80;100.00
56681;BME280;42558;52.388;13.390;2023-12-20T07:42:11;100432.38;;;3.83;100.00
56681;BME280;42558;52.388;13.390;2023-12-20T07:44:41;100432.58;;;3.89;100.00
56681;BME280;42558;52.388;13.390;2023-12-20T07:47:11;100422.77;;;3.87;100.00
56681;BME280;42558;52.388;13.390;2023-12-20T07:49:45;100420.65;;;3.91;100.00
56681;BME280;42558;52.388;13.390;2023-12-20T07:52:15;100418.01;;;3.90;100.00
56681;BME280;42558;52.388;13.390;2023-12-20T07:54:45;100423.65;;;3.88;100.00
56681;BME280;42558;52.388;13.390;2023-12-20T07:57:15;100418.83;;;3.89;100.00
56681;BME280;42558;52.388;13.390;2023-12-20T07:59:45;100416.36;;;3.88;100.00
56681;BME280;42558;52.388;13.390;2023-12-20T08:02:15;100414.59;;;3.87;100.00
56681;BME280;42558;52.388;13.390;2023-12-20T08:04:45;100415.82;;;3.88;100.00
56681;BME280;42558;52.388;13.390;2023-12-20T08:07:15;100409.70;;;3.92;100.00
56681;BME280;42558;52.388;13.390;2023-12-20T08:09:45;100412.47;;;3.96;100.00
56681;BME280;42558;52.388;13.390;2023-12-20T08:12:15;100402.81;;;3.99;100.00
56681;BME280;42558;52.388;13.390;2023-12-20T08:14:46;100407.48;;;4.03;100.00
56681;BME280;42558;52.388;13.390;2023-12-20T08:17:16;100404.52;;;4.07;100.00
56681;BME280;42558;52.388;13.390;2023-12-20T08:19:48;100406.13;;;4.09;100.00
56681;BME280;42558;52.388;13.390;2023-12-20T08:22:18;100400.52;;;4.07;100.00
56681;BME280;42558;52.388;13.390;2023-12-20T08:24:48;100397.46;;;4.10;100.00
56681;BME280;42558;52.388;13.390;2023-12-20T08:27:18;100396.69;;;4.07;100.00
56681;BME280;42558;52.388;13.390;2023-12-20T08:29:48;100395.08;;;4.06;100.00
56681;BME280;42558;52.388;13.390;2023-12-20T08:32:19;100397.09;;;4.04;100.00
56681;BME280;42558;52.388;13.390;2023-12-20T08:34:49;100391.63;;;4.01;100.00
56681;BME280;42558;52.388;13.390;2023-12-20T08:37:19;100394.83;;;4.04;100.00
56681;BME280;42558;52.388;13.390;2023-12-20T08:39:49;100391.55;;;4.04;100.00
56681;BME280;42558;52.388;13.390;2023-12-20T08:42:19;100392.47;;;4.12;100.00
56681;BME280;42558;52.388;13.390;2023-12-20T08:44:49;100386.27;;;4.19;100.00
56681;BME280;42558;52.388;13.390;2023-12-20T08:47:17;100375.80;;;4.23;100.00
56681;BME280;42558;52.388;13.390;2023-12-20T08:49:46;100368.03;;;4.30;100.00
56681;BME280;42558;52.388;13.390;2023-12-20T08:52:14;100370.98;;;4.35;100.00
56681;BME280;42558;52.388;13.390;2023-12-20T08:54:43;100374.60;;;4.39;100.00
56681;BME280;42558;52.388;13.390;2023-12-20T08:57:12;100373.24;;;4.52;100.00
56681;BME280;42558;52.388;13.390;2023-12-20T08:59:39;100375.70;;;4.52;100.00
56681;BME280;42558;52.388;13.390;2023-12-20T09:02:08;100368.45;;;4.49;100.00
56681;BME280;42558;52.388;13.390;2023-12-20T09:04:36;100371.81;;;4.45;100.00
56681;BME280;42558;52.388;13.390;2023-12-20T09:07:05;100368.11;;;4.44;100.00
56681;BME280;42558;52.388;13.390;2023-12-20T09:09:33;100368.48;;;4.50;100.00
56681;BME280;42558;52.388;13.390;2023-12-20T09:12:02;100366.41;;;4.56;100.00
56681;BME280;42558;52.388;13.390;2023-12-20T09:14:30;100365.06;;;4.62;100.00
56681;BME280;42558;52.388;13.390;2023-12-20T09:16:58;100363.33;;;4.75;100.00
56681;BME280;42558;52.388;13.390;2023-12-20T09:19:30;100365.00;;;4.78;100.00
56681;BME280;42558;52.388;13.390;2023-12-20T09:21:58;100370.41;;;4.73;100.00
56681;BME280;42558;52.388;13.390;2023-12-20T09:24:27;100370.39;;;4.72;100.00
56681;BME280;42558;52.388;13.390;2023-12-20T09:26:55;100364.60;;;4.71;100.00
56681;BME280;42558;52.388;13.390;2023-12-20T09:29:23;100361.55;;;4.68;100.00
56681;BME280;42558;52.388;13.390;2023-12-20T09:31:52;100356.46;;;4.67;100.00
56681;BME280;42558;52.388;13.390;2023-12-20T09:34:20;100362.09;;;4.68;100.00
56681;BME280;42558;52.388;13.390;2023-12-20T09:36:49;100358.55;;;4.72;100.00
56681;BME280;42558;52.388;13.390;2023-12-20T09:39:19;100359.67;;;4.75;100.00
56681;BME280;42558;52.388;13.390;2023-12-20T09:42:03;100354.21;;;4.84;100.00
56681;BME280;42558;52.388;13.390;2023-12-20T09:44:34;100358.17;;;4.88;100.00
56681;BME280;42558;52.388;13.390;2023-12-20T09:47:06;100359.06;;;4.89;100.00
56681;BME280;42558;52.388;13.390;2023-12-20T09:49:37;100359.44;;;4.90;100.00
56681;BME280;42558;52.388;13.390;2023-12-20T09:52:10;100359.38;;;4.88;100.00
56681;BME280;42558;52.388;13.390;2023-12-20T09:54:41;100357.24;;;4.87;100.00
56681;BME280;42558;52.388;13.390;2023-12-20T09:57:13;100353.55;;;4.91;100.00
56681;BME280;42558;52.388;13.390;2023-12-20T09:59:43;100348.86;;;4.91;100.00
56681;BME280;42558;52.388;13.390;2023-12-20T10:02:14;100343.01;;;4.94;100.00
56681;BME280;42558;52.388;13.390;2023-12-20T10:04:47;100345.73;;;4.98;100.00
56681;BME280;42558;52.388;13.390;2023-12-20T10:07:18;100345.90;;;4.97;100.00
56681;BME280;42558;52.388;13.390;2023-12-20T10:09:48;100334.38;;;4.96;100.00
56681;BME280;42558;52.388;13.390;2023-12-20T10:12:18;100330.97;;;4.99;100.00
56681;BME280;42558;52.388;13.390;2023-12-20T10:14:48;100322.76;;;5.04;100.00
56681;BME280;42558;52.388;13.390;2023-12-20T10:17:18;100319.44;;;5.04;100.00
56681;BME280;42558;52.388;13.390;2023-12-20T10:19:48;100313.55;;;5.05;100.00
56681;BME280;42558;52.388;13.390;2023-12-20T10:22:18;100310.21;;;5.04;100.00
56681;BME280;42558;52.388;13.390;2023-12-20T10:24:46;100312.17;;;5.06;100.00
56681;BME280;42558;52.388;13.390;2023-12-20T10:27:18;100306.73;;;5.10;100.00
56681;BME280;42558;52.388;13.390;2023-12-20T10:29:46;100296.22;;;5.14;100.00
56681;BME280;42558;52.388;13.390;2023-12-20T10:32:26;100292.92;;;5.22;100.00
56681;BME280;42558;52.388;13.390;2023-12-20T10:34:55;100290.77;;;5.26;100.00
56681;BME280;42558;52.388;13.390;2023-12-20T10:37:26;100281.27;;;5.29;100.00
56681;BME280;42558;52.388;13.390;2023-12-20T10:39:54;100280.86;;;5.33;100.00
56681;BME280;42558;52.388;13.390;2023-12-20T10:42:29;100276.69;;;5.34;100.00
56681;BME280;42558;52.388;13.390;2023-12-20T10:45:00;100278.59;;;5.33;100.00
56681;BME280;42558;52.388;13.390;2023-12-20T10:47:30;100260.92;;;5.37;100.00
56681;BME280;42558;52.388;13.390;2023-12-20T10:49:59;100254.91;;;5.41;100.00
56681;BME280;42558;52.388;13.390;2023-12-20T10:52:29;100250.45;;;5.43;100.00
56681;BME280;42558;52.388;13.390;2023-12-20T10:55:00;100246.43;;;5.50;100.00
56681;BME280;42558;52.388;13.390;2023-12-20T10:57:30;100246.18;;;5.54;100.00
56681;BME280;42558;52.388;13.390;2023-12-20T11:00:02;100245.91;;;5.50;100.00
56681;BME280;42558;52.388;13.390;2023-12-20T11:02:40;100235.73;;;5.47;100.00
56681;BME280;42558;52.388;13.390;2023-12-20T11:05:28;100227.36;;;5.40;100.00
56681;BME280;42558;52.388;13.390;2023-12-20T11:08:19;100222.01;;;5.35;100.00
56681;BME280;42558;52.388;13.390;2023-12-20T11:11:34;100213.63;;;5.35;100.00
56681;BME280;42558;52.388;13.390;2023-12-20T11:14:15;100205.23;;;5.41;100.00
56681;BME280;42558;52.388;13.390;2023-12-20T11:16:48;100209.11;;;5.42;100.00
56681;BME280;42558;52.388;13.390;2023-12-20T11:19:24;100208.10;;;5.43;100.00
56681;BME280;42558;52.388;13.390;2023-12-20T11:21:52;100203.88;;;5.42;100.00
56681;BME280;42558;52.388;13.390;2023-12-20T11:24:25;100195.98;;;5.47;100.00
56681;BME280;42558;52.388;13.390;2023-12-20T11:26:56;100194.87;;;5.51;100.00
56681;BME280;42558;52.388;13.390;2023-12-20T11:29:36;100189.77;;;5.50;100.00
56681;BME280;42558;52.388;13.390;2023-12-20T11:37:40;100183.64;;;5.35;100.00
56681;BME280;42558;52.388;13.390;2023-12-20T11:40:17;100175.46;;;5.28;100.00
56681;BME280;42558;52.388;13.390;2023-12-20T11:42:50;100167.35;;;5.25;100.00
56681;BME280;42558;52.388;13.390;2023-12-20T11:45:24;100155.39;;;5.20;100.00
56681;BME280;42558;52.388;13.390;2023-12-20T11:48:07;100146.55;;;5.22;100.00
56681;BME280;42558;52.388;13.390;2023-12-20T11:50:37;100147.14;;;5.24;100.00
56681;BME280;42558;52.388;13.390;2023-12-20T11:53:08;100143.95;;;5.22;100.00
56681;BME280;42558;52.388;13.390;2023-12-20T11:55:38;100153.32;;;5.20;100.00
56681;BME280;42558;52.388;13.390;2023-12-20T11:58:08;100147.99;;;5.24;100.00
56681;BME280;42558;52.388;13.390;2023-12-20T12:00:39;100147.55;;;5.20;100.00
56681;BME280;42558;52.388;13.390;2023-12-20T12:03:09;100143.27;;;5.23;100.00
56681;BME280;42558;52.388;13.390;2023-12-20T12:05:36;100140.56;;;5.19;100.00
56681;BME280;42558;52.388;13.390;2023-12-20T12:08:04;100133.58;;;5.18;100.00
56681;BME280;42558;52.388;13.390;2023-12-20T12:10:35;100122.73;;;5.16;100.00
56681;BME280;42558;52.388;13.390;2023-12-20T12:13:05;100120.98;;;5.17;100.00
56681;BME280;42558;52.388;13.390;2023-12-20T12:15:36;100116.00;;;5.20;100.00
56681;BME280;42558;52.388;13.390;2023-12-20T12:18:07;100111.86;;;5.21;100.00
56681;BME280;42558;52.388;13.390;2023-12-20T12:20:37;100105.44;;;5.22;100.00
56681;BME280;42558;52.388;13.390;2023-12-20T12:23:07;100103.13;;;5.20;100.00
56681;BME280;42558;52.388;13.390;2023-12-20T12:25:38;100092.52;;;5.21;100.00
56681;BME280;42558;52.388;13.390;2023-12-20T12:28:12;100082.89;;;5.19;100.00
56681;BME280;42558;52.388;13.390;2023-12-20T12:30:41;100081.88;;;5.20;100.00
56681;BME280;42558;52.388;13.390;2023-12-20T12:33:20;100075.45;;;5.21;100.00
56681;BME280;42558;52.388;13.390;2023-12-20T12:35:48;100065.37;;;5.15;100.00
56681;BME280;42558;52.388;13.390;2023-12-20T12:38:21;100064.27;;;5.13;100.00
56681;BME280;42558;52.388;13.390;2023-12-20T12:40:50;100054.30;;;5.11;100.00
56681;BME280;42558;52.388;13.390;2023-12-20T12:43:20;100053.29;;;5.13;100.00
56681;BME280;42558;52.388;13.390;2023-12-20T12:45:53;100052.72;;;5.10;100.00
56681;BME280;42558;52.388;13.390;2023-12-20T12:48:23;100044.98;;;5.08;100.00
56681;BME280;42558;52.388;13.390;2023-12-20T12:50:54;100040.03;;;5.05;100.00
56681;BME280;42558;52.388;13.390;2023-12-20T12:53:22;100033.29;;;5.01;100.00
56681;BME280;42558;52.388;13.390;2023-12-20T12:55:50;100022.44;;;4.98;100.00
56681;BME280;42558;52.388;13.390;2023-12-20T12:58:19;100021.05;;;4.98;100.00
56681;BME280;42558;52.388;13.390;2023-12-20T13:00:47;100017.53;;;4.97;100.00